createdAt,value
2023-03-17T00:01:01.757Z,101226.92
2023-03-17T00:03:38.542Z,101230.45
2023-03-17T00:06:17.768Z,101232.84
2023-03-17T00:08:51.616Z,101231.73
2023-03-17T00:11:25.899Z,101232.61
2023-03-17T00:13:59.452Z,101237.34
2023-03-17T00:16:36.685Z,101235.14
2023-03-17T00:19:12.583Z,101232.47
2023-03-17T00:21:47.435Z,101230.15
2023-03-17T00:24:21.649Z,101229.30
2023-03-17T00:26:55.046Z,101222.16
2023-03-17T00:29:28.906Z,101212.87
2023-03-17T00:32:02.825Z,101210.35
2023-03-17T00:34:36.558Z,101211.21
2023-03-17T00:37:14.342Z,101213.52
2023-03-17T00:39:48.038Z,101213.48
2023-03-17T00:42:22.031Z,101213.75
2023-03-17T00:44:55.918Z,101208.50
2023-03-17T00:47:29.609Z,101202.88
2023-03-17T00:50:03.504Z,101199.43
2023-03-17T00:52:37.210Z,101199.41
2023-03-17T00:55:12.466Z,101197.93
2023-03-17T00:57:46.314Z,101197.58
2023-03-17T01:00:26.784Z,101193.48
2023-03-17T01:03:00.982Z,101192.41
2023-03-17T01:05:34.539Z,101192.46
2023-03-17T01:08:09.624Z,101190.60
2023-03-17T01:10:43.877Z,101193.60
2023-03-17T01:13:18.186Z,101192.77
2023-03-17T01:15:53.139Z,101186.78
2023-03-17T01:18:28.143Z,101182.18
2023-03-17T01:21:02.051Z,101182.23
2023-03-17T01:23:36.017Z,101180.52
2023-03-17T01:26:10.222Z,101178.45
2023-03-17T01:28:44.320Z,101175.05
2023-03-17T01:31:17.645Z,101171.73
2023-03-17T01:33:51.710Z,101177.04
2023-03-17T01:36:25.644Z,101179.54
2023-03-17T01:38:59.827Z,101176.95
2023-03-17T01:41:36.924Z,101173.95
2023-03-17T01:44:14.335Z,101180.97
2023-03-17T01:46:49.842Z,101183.48
2023-03-17T01:49:31.953Z,101181.77
2023-03-17T01:52:10.294Z,101185.50
2023-03-17T01:54:45.774Z,101187.80
2023-03-17T01:57:25.346Z,101189.73
2023-03-17T02:00:06.342Z,101186.76
2023-03-17T02:02:50.436Z,101187.96
2023-03-17T02:05:26.687Z,101185.39
2023-03-17T02:08:01.379Z,101183.92
2023-03-17T02:10:35.475Z,101187.85
2023-03-17T02:13:10.352Z,101188.80
2023-03-17T02:15:47.640Z,101187.89
2023-03-17T02:18:24.019Z,101189.86
2023-03-17T02:21:39.395Z,101193.54
2023-03-17T02:24:22.739Z,101195.41
2023-03-17T02:26:59.800Z,101194.41
2023-03-17T02:29:38.020Z,101197.98
2023-03-17T02:32:12.161Z,101197.62
2023-03-17T02:34:45.817Z,101198.83
2023-03-17T02:37:20.679Z,101197.70
2023-03-17T02:39:54.209Z,101199.79
2023-03-17T02:42:28.631Z,101197.09
2023-03-17T02:45:06.660Z,101196.04
2023-03-17T02:47:41.716Z,101194.80
2023-03-17T02:50:22.521Z,101196.61
2023-03-17T02:52:56.389Z,101196.97
2023-03-17T02:55:29.925Z,101199.92
2023-03-17T02:58:04.100Z,101203.98
2023-03-17T03:00:39.115Z,101206.76
2023-03-17T03:03:12.984Z,101208.26
2023-03-17T03:05:47.449Z,101213.73
2023-03-17T03:08:21.074Z,101221.16
2023-03-17T03:10:55.350Z,101221.56
2023-03-17T03:13:29.229Z,101223.71
2023-03-17T03:16:03.121Z,101227.30
2023-03-17T03:18:37.469Z,101231.41
2023-03-17T03:21:12.494Z,101233.81
2023-03-17T03:23:46.165Z,101239.19
2023-03-17T03:26:20.289Z,101238.77
2023-03-17T03:28:54.255Z,101239.55
2023-03-17T03:31:28.382Z,101243.77
2023-03-17T03:34:02.043Z,101243.77
2023-03-17T03:36:35.570Z,101240.16
2023-03-17T03:39:10.744Z,101240.48
2023-03-17T03:41:45.807Z,101244.63
2023-03-17T03:44:19.581Z,101242.41
2023-03-17T03:46:53.388Z,101244.13
2023-03-17T03:49:27.166Z,101245.98
2023-03-17T03:52:00.640Z,101243.68
2023-03-17T03:54:34.404Z,101238.35
2023-03-17T03:57:08.262Z,101235.33
2023-03-17T03:59:42.156Z,101230.67
2023-03-17T04:02:17.484Z,101228.51
2023-03-17T04:04:52.103Z,101229.91
2023-03-17T04:07:25.967Z,101229.73
2023-03-17T04:10:00.204Z,101224.63
2023-03-17T04:12:33.896Z,101221.63
2023-03-17T04:15:09.427Z,101223.69
2023-03-17T04:17:42.899Z,101224.18
2023-03-17T04:20:18.083Z,101222.81
2023-03-17T04:22:51.710Z,101230.69
2023-03-17T04:25:25.229Z,101230.91
2023-03-17T04:27:58.613Z,101234.97
2023-03-17T04:30:32.841Z,101237.45
2023-03-17T04:33:07.554Z,101238.09
2023-03-17T04:35:43.016Z,101238.36
2023-03-17T04:38:16.851Z,101236.61
2023-03-17T04:40:51.368Z,101237.73
2023-03-17T04:43:24.849Z,101244.41
2023-03-17T04:45:58.647Z,101247.09
2023-03-17T04:48:32.417Z,101244.90
2023-03-17T04:51:06.510Z,101245.89
2023-03-17T04:53:40.343Z,101249.04
2023-03-17T04:56:14.474Z,101242.38
2023-03-17T04:58:48.311Z,101232.75
2023-03-17T05:01:21.940Z,101230.27
2023-03-17T05:03:55.565Z,101228.23
2023-03-17T05:06:29.530Z,101229.95
2023-03-17T05:09:04.012Z,101235.80
2023-03-17T05:11:38.241Z,101240.52
2023-03-17T05:14:11.656Z,101244.65
2023-03-17T05:16:48.452Z,101245.44
2023-03-17T05:19:22.378Z,101259.35
2023-03-17T05:21:56.483Z,101261.96
2023-03-17T05:24:30.122Z,101263.50
2023-03-17T05:27:04.166Z,101269.77
2023-03-17T05:29:38.424Z,101271.40
2023-03-17T05:32:12.809Z,101270.02
2023-03-17T05:34:46.674Z,101267.66
2023-03-17T05:37:20.689Z,101270.85
2023-03-17T05:39:54.492Z,101273.74
2023-03-17T05:42:28.854Z,101268.46
2023-03-17T05:45:02.643Z,101267.86
2023-03-17T05:47:36.504Z,101273.19
2023-03-17T05:50:12.027Z,101276.42
2023-03-17T05:52:45.945Z,101276.48
2023-03-17T05:55:19.827Z,101277.39
2023-03-17T05:57:53.265Z,101272.24
2023-03-17T06:00:29.677Z,101272.73
2023-03-17T06:03:04.162Z,101276.95
2023-03-17T06:05:37.957Z,101278.70
2023-03-17T06:08:11.536Z,101274.42
2023-03-17T06:10:44.735Z,101265.80
2023-03-17T06:13:18.505Z,101263.73
2023-03-17T06:15:54.197Z,101255.36
2023-03-17T06:18:27.751Z,101251.71
2023-03-17T06:21:02.206Z,101247.93
2023-03-17T06:23:37.240Z,101252.22
2023-03-17T06:26:11.277Z,101256.27
2023-03-17T06:28:44.824Z,101257.90
2023-03-17T06:31:18.571Z,101256.05
2023-03-17T06:33:52.468Z,101260.56
2023-03-17T06:36:26.283Z,101264.61
2023-03-17T06:39:00.128Z,101259.27
2023-03-17T06:41:33.863Z,101258.64
2023-03-17T06:44:07.775Z,101261.27
2023-03-17T06:46:41.812Z,101267.30
2023-03-17T06:49:16.366Z,101265.86
2023-03-17T06:51:50.253Z,101268.15
2023-03-17T06:54:25.865Z,101271.84
2023-03-17T06:56:59.948Z,101266.52
2023-03-17T06:59:34.064Z,101257.21
2023-03-17T07:02:07.781Z,101253.95
2023-03-17T07:04:42.120Z,101253.43
2023-03-17T07:07:16.593Z,101251.59
2023-03-17T07:09:50.219Z,101252.02
2023-03-17T07:12:24.275Z,101245.88
2023-03-17T07:14:58.527Z,101241.16
2023-03-17T07:17:33.211Z,101241.02
2023-03-17T07:20:07.764Z,101239.63
2023-03-17T07:22:41.513Z,101238.06
2023-03-17T07:25:15.615Z,101237.77
2023-03-17T07:27:49.758Z,101234.45
2023-03-17T07:30:23.798Z,101230.84
2023-03-17T07:32:58.902Z,101237.83
2023-03-17T07:35:34.305Z,101230.88
2023-03-17T07:38:08.470Z,101224.10
2023-03-17T07:40:42.558Z,101221.77
2023-03-17T07:43:17.168Z,101223.29
2023-03-17T07:45:51.340Z,101219.84
2023-03-17T07:48:24.809Z,101215.55
2023-03-17T07:50:59.111Z,101223.84
2023-03-17T07:53:32.408Z,101230.40
2023-03-17T07:56:06.308Z,101225.83
2023-03-17T07:58:40.535Z,101224.78
2023-03-17T08:01:14.304Z,101226.77
2023-03-17T08:03:48.412Z,101220.81
2023-03-17T08:06:22.429Z,101216.41
2023-03-17T08:08:56.874Z,101217.11
2023-03-17T08:11:30.169Z,101210.54
2023-03-17T08:14:03.926Z,101205.77
2023-03-17T08:16:38.003Z,101208.39
2023-03-17T08:19:12.125Z,101208.46
2023-03-17T08:21:46.161Z,101209.48
2023-03-17T08:24:21.140Z,101209.11
2023-03-17T08:26:54.667Z,101213.58
2023-03-17T08:29:30.560Z,101210.62
2023-03-17T08:32:04.640Z,101207.26
2023-03-17T08:34:38.856Z,101206.23
2023-03-17T08:37:12.897Z,101219.79
2023-03-17T08:39:47.175Z,101226.23
2023-03-17T08:42:20.842Z,101230.34
2023-03-17T08:44:54.266Z,101228.67
2023-03-17T08:47:28.697Z,101235.05
2023-03-17T08:50:02.697Z,101245.21
2023-03-17T08:52:36.648Z,101248.25
2023-03-17T08:55:13.012Z,101250.32
2023-03-17T08:57:47.018Z,101247.41
2023-03-17T09:00:22.580Z,101253.79
2023-03-17T09:02:57.343Z,101257.09
2023-03-17T09:05:32.200Z,101250.27
2023-03-17T09:08:05.709Z,101249.98
2023-03-17T09:10:39.735Z,101251.36
2023-03-17T09:13:13.357Z,101253.42
2023-03-17T09:15:48.391Z,101253.80
2023-03-17T09:18:22.736Z,101255.84
2023-03-17T09:20:56.748Z,101253.89
2023-03-17T09:23:30.997Z,101255.85
2023-03-17T09:26:05.159Z,101248.67
2023-03-17T09:28:38.737Z,101242.97
2023-03-17T09:31:13.281Z,101233.11
2023-03-17T09:33:47.688Z,101225.98
2023-03-17T09:36:22.055Z,101231.29
2023-03-17T09:38:56.207Z,101232.73
2023-03-17T09:41:57.389Z,101229.67
2023-03-17T09:44:46.843Z,101232.95
2023-03-17T09:47:38.480Z,101231.08
2023-03-17T09:50:17.904Z,101223.89
2023-03-17T09:52:53.475Z,101225.80
2023-03-17T09:55:31.496Z,101221.33
2023-03-17T09:58:05.705Z,101212.34
2023-03-17T10:00:39.878Z,101197.84
2023-03-17T10:03:15.368Z,101194.83
2023-03-17T10:05:49.536Z,101184.46
2023-03-17T10:08:31.571Z,101173.17
2023-03-17T10:11:15.702Z,101177.80
2023-03-17T10:13:59.030Z,101171.75
2023-03-17T10:16:42.096Z,101173.66
2023-03-17T10:19:23.833Z,101177.48
2023-03-17T10:22:03.037Z,101181.60
2023-03-17T10:24:41.609Z,101183.03
2023-03-17T10:27:17.496Z,101181.54
2023-03-17T10:29:51.328Z,101182.75
2023-03-17T10:32:24.895Z,101174.41
2023-03-17T10:34:58.968Z,101174.86
2023-03-17T10:37:36.997Z,101173.70
2023-03-17T10:40:22.567Z,101176.02
2023-03-17T10:43:04.067Z,101164.71
2023-03-17T10:45:44.075Z,101160.02
2023-03-17T10:48:21.199Z,101149.28
2023-03-17T10:50:58.738Z,101147.36
2023-03-17T10:53:43.657Z,101143.76
2023-03-17T10:56:25.085Z,101146.15
2023-03-17T10:58:59.265Z,101147.08
2023-03-17T11:01:41.746Z,101150.32
2023-03-17T11:04:31.165Z,101153.03
2023-03-17T11:07:11.845Z,101153.92
2023-03-17T11:09:51.004Z,101153.19
2023-03-17T11:12:28.890Z,101146.35
2023-03-17T11:15:08.966Z,101141.12
2023-03-17T11:17:50.477Z,101140.75
2023-03-17T11:20:42.802Z,101136.11
2023-03-17T11:23:35.312Z,101134.02
2023-03-17T11:26:19.622Z,101133.79
2023-03-17T11:29:01.283Z,101122.45
2023-03-17T11:31:40.350Z,101118.88
2023-03-17T11:34:22.333Z,101109.46
2023-03-17T11:37:07.302Z,101105.45
2023-03-17T11:39:50.938Z,101103.55
2023-03-17T11:42:29.559Z,101097.55
2023-03-17T11:45:15.978Z,101093.60
2023-03-17T11:48:10.989Z,101099.88
2023-03-17T11:51:01.645Z,101096.20
2023-03-17T11:53:51.242Z,101086.17
2023-03-17T11:56:33.800Z,101076.90
2023-03-17T11:59:14.931Z,101069.59
2023-03-17T12:01:57.155Z,101063.11
2023-03-17T12:04:36.516Z,101062.46
2023-03-17T12:07:18.732Z,101063.48
2023-03-17T12:10:01.333Z,101059.69
2023-03-17T12:12:41.606Z,101059.45
2023-03-17T12:15:21.461Z,101058.63
2023-03-17T12:17:59.576Z,101054.02
2023-03-17T12:20:41.456Z,101054.61
2023-03-17T12:23:29.738Z,101058.89
2023-03-17T12:26:11.120Z,101063.69
2023-03-17T12:28:50.236Z,101065.54
2023-03-17T12:31:27.689Z,101063.25
2023-03-17T12:34:09.735Z,101058.60
2023-03-17T12:36:44.274Z,101056.88
2023-03-17T12:39:20.822Z,101059.49
2023-03-17T12:42:15.969Z,101058.70
2023-03-17T12:45:07.569Z,101055.63
2023-03-17T12:47:55.392Z,101051.08
2023-03-17T12:51:06.817Z,101046.92
2023-03-17T12:53:42.948Z,101045.20
2023-03-17T12:56:23.022Z,101047.73
2023-03-17T12:59:01.549Z,101047.02
2023-03-17T13:01:35.462Z,101039.30
2023-03-17T13:04:26.846Z,101035.61
2023-03-17T13:07:12.905Z,101034.17
2023-03-17T13:10:12.341Z,101031.39
2023-03-17T13:13:14.886Z,101033.85
2023-03-17T13:16:04.876Z,101034.36
2023-03-17T13:19:07.782Z,101035.27
2023-03-17T13:21:45.868Z,101031.30
2023-03-17T13:24:42.228Z,101029.92
2023-03-17T13:27:38.422Z,101029.69
2023-03-17T13:30:42.564Z,101021.39
2023-03-17T13:33:27.635Z,101019.56
2023-03-17T13:36:19.437Z,101011.22
2023-03-17T13:39:42.016Z,101006.10
2023-03-17T13:42:27.830Z,100997.20
2023-03-17T13:45:23.616Z,100997.23
2023-03-17T13:48:27.882Z,100996.79
2023-03-17T13:51:15.124Z,101001.86
2023-03-17T13:53:54.250Z,100996.14
2023-03-17T13:56:47.524Z,100993.92
2023-03-17T13:59:21.982Z,100994.20
2023-03-17T14:02:01.800Z,100995.60
2023-03-17T14:04:48.204Z,100991.80
2023-03-17T14:07:25.516Z,100993.54
2023-03-17T14:10:05.493Z,100985.34
2023-03-17T14:12:46.634Z,100975.86
2023-03-17T14:15:28.360Z,100968.80
2023-03-17T14:18:06.310Z,100971.60
2023-03-17T14:20:40.306Z,100965.63
2023-03-17T14:23:13.899Z,100963.80
2023-03-17T14:25:47.978Z,100960.86
2023-03-17T14:28:26.819Z,100959.73
2023-03-17T14:31:00.696Z,100954.27
2023-03-17T14:33:38.854Z,100962.88
2023-03-17T14:36:15.479Z,100956.83
2023-03-17T14:38:53.202Z,100951.64
2023-03-17T14:41:28.412Z,100945.48
2023-03-17T14:44:03.572Z,100940.35
2023-03-17T14:46:40.739Z,100932.36
2023-03-17T14:49:20.017Z,100930.52
2023-03-17T14:51:56.683Z,100933.59
2023-03-17T14:54:33.843Z,100949.00
2023-03-17T14:57:10.497Z,100956.45
2023-03-17T14:59:45.361Z,100950.41
2023-03-17T15:02:30.125Z,100950.19
2023-03-17T15:05:08.410Z,100947.77
2023-03-17T15:07:43.985Z,100938.72
2023-03-17T15:10:21.277Z,100936.48
2023-03-17T15:13:04.455Z,100932.79
2023-03-17T15:15:41.902Z,100927.07
2023-03-17T15:18:17.188Z,100918.80
2023-03-17T15:20:51.873Z,100914.51
2023-03-17T15:23:30.452Z,100912.36
2023-03-17T15:26:10.525Z,100915.18
2023-03-17T15:28:44.804Z,100918.17
2023-03-17T15:31:18.425Z,100915.32
2023-03-17T15:33:52.725Z,100914.23
2023-03-17T15:36:32.792Z,100914.30
2023-03-17T15:39:07.746Z,100918.36
2023-03-17T15:41:41.961Z,100913.38
2023-03-17T15:44:16.303Z,100919.12
2023-03-17T15:46:50.176Z,100926.85
2023-03-17T15:49:26.778Z,100929.30
2023-03-17T15:52:00.424Z,100931.50
2023-03-17T15:54:34.290Z,100930.64
2023-03-17T15:57:08.527Z,100929.06
2023-03-17T15:59:42.549Z,100928.92
2023-03-17T16:02:34.408Z,100933.52
2023-03-17T16:05:19.652Z,100935.75
2023-03-17T16:07:53.955Z,100941.52
2023-03-17T16:10:29.701Z,100943.20
2023-03-17T16:13:03.857Z,100941.34
2023-03-17T16:15:42.521Z,100947.51
2023-03-17T16:18:17.151Z,100947.64
2023-03-17T16:20:54.241Z,100947.98
2023-03-17T16:23:31.853Z,100943.40
2023-03-17T16:26:16.517Z,100934.35
2023-03-17T16:28:51.756Z,100931.73
2023-03-17T16:31:29.562Z,100930.27
2023-03-17T16:34:04.096Z,100930.90
2023-03-17T16:36:38.367Z,100933.57
2023-03-17T16:39:18.878Z,100933.80
2023-03-17T16:41:53.821Z,100935.52
2023-03-17T16:44:28.400Z,100939.42
2023-03-17T16:47:02.490Z,100938.91
2023-03-17T16:49:36.458Z,100936.95
2023-03-17T16:52:11.590Z,100938.08
2023-03-17T16:54:45.273Z,100940.27
2023-03-17T16:57:20.207Z,100941.02
2023-03-17T16:59:54.346Z,100945.55
2023-03-17T17:02:30.298Z,100949.52
2023-03-17T17:05:07.601Z,100946.45
2023-03-17T17:07:42.160Z,100948.71
2023-03-17T17:10:19.257Z,100951.41
2023-03-17T17:12:53.972Z,100951.73
2023-03-17T17:15:30.312Z,100946.42
2023-03-17T17:18:09.260Z,100946.54
2023-03-17T17:20:44.944Z,100937.98
2023-03-17T17:23:25.255Z,100933.41
2023-03-17T17:26:00.302Z,100930.88
2023-03-17T17:28:36.074Z,100926.34
2023-03-17T17:31:12.395Z,100924.80
2023-03-17T17:33:48.642Z,100924.39
2023-03-17T17:36:22.911Z,100936.56
2023-03-17T17:39:00.261Z,100946.15
2023-03-17T17:41:35.960Z,100947.29
2023-03-17T17:44:13.306Z,100944.25
2023-03-17T17:46:50.132Z,100946.13
2023-03-17T17:49:32.473Z,100944.34
2023-03-17T17:52:12.952Z,100946.29
2023-03-17T17:54:57.951Z,100946.67
2023-03-17T17:57:35.013Z,100950.13
2023-03-17T18:00:19.671Z,100946.43
2023-03-17T18:02:59.226Z,100950.95
2023-03-17T18:05:35.099Z,100954.92
2023-03-17T18:08:21.358Z,100952.91
2023-03-17T18:10:58.433Z,100948.38
2023-03-17T18:13:40.107Z,100947.16
2023-03-17T18:16:19.756Z,100940.22
2023-03-17T18:18:58.709Z,100947.83
2023-03-17T18:21:37.523Z,100951.36
2023-03-17T18:24:14.152Z,100947.29
2023-03-17T18:26:52.520Z,100948.99
2023-03-17T18:29:30.556Z,100952.65
2023-03-17T18:32:09.179Z,100945.58
2023-03-17T18:34:57.952Z,100943.29
2023-03-17T18:37:44.865Z,100941.16
2023-03-17T18:40:26.165Z,100943.86
2023-03-17T18:43:02.670Z,100944.05
2023-03-17T18:45:39.180Z,100945.46
2023-03-17T18:48:19.307Z,100946.66
2023-03-17T18:50:56.806Z,100943.76
2023-03-17T18:53:37.784Z,100946.26
2023-03-17T18:56:23.383Z,100949.36
2023-03-17T18:59:05.014Z,100952.27
2023-03-17T19:01:43.333Z,100957.84
2023-03-17T19:04:21.075Z,100961.78
2023-03-17T19:06:58.577Z,100962.70
2023-03-17T19:09:35.833Z,100959.55
2023-03-17T19:12:14.546Z,100955.19
2023-03-17T19:14:55.876Z,100952.82
2023-03-17T19:17:43.141Z,100955.55
2023-03-17T19:20:23.070Z,100946.98
2023-03-17T19:22:59.606Z,100941.70
2023-03-17T19:25:37.968Z,100939.65
2023-03-17T19:28:16.987Z,100944.08
2023-03-17T19:30:57.034Z,100943.20
2023-03-17T19:33:33.660Z,100939.33
2023-03-17T19:36:15.941Z,100938.98
2023-03-17T19:38:53.909Z,100929.27
2023-03-17T19:41:35.823Z,100930.65
2023-03-17T19:44:16.674Z,100929.52
2023-03-17T19:46:55.398Z,100928.55
2023-03-17T19:49:32.150Z,100931.86
2023-03-17T19:52:10.574Z,100933.60
2023-03-17T19:54:50.001Z,100931.00
2023-03-17T19:57:24.906Z,100928.05
2023-03-17T20:00:03.922Z,100931.43
2023-03-17T20:02:46.997Z,100928.75
2023-03-17T20:05:28.110Z,100928.30
2023-03-17T20:08:09.890Z,100922.63
2023-03-17T20:10:49.029Z,100932.80
2023-03-17T20:13:25.906Z,100932.46
2023-03-17T20:16:02.774Z,100928.49
2023-03-17T20:18:43.925Z,100924.91
2023-03-17T20:21:20.191Z,100922.39
2023-03-17T20:23:57.827Z,100929.00
2023-03-17T20:26:35.063Z,100929.17
2023-03-17T20:29:11.667Z,100929.17
2023-03-17T20:31:49.399Z,100927.71
2023-03-17T20:34:26.811Z,100928.11
2023-03-17T20:37:11.272Z,100925.50
2023-03-17T20:39:48.236Z,100924.99
2023-03-17T20:42:26.956Z,100926.18
2023-03-17T20:45:05.132Z,100927.50
2023-03-17T20:47:40.597Z,100926.20
2023-03-17T20:50:19.115Z,100922.60
2023-03-17T20:52:56.276Z,100921.48
2023-03-17T20:55:33.823Z,100923.13
2023-03-17T20:58:16.341Z,100917.77
2023-03-17T21:00:55.287Z,100915.39
2023-03-17T21:03:42.030Z,100916.59
2023-03-17T21:06:26.161Z,100910.95
2023-03-17T21:09:02.819Z,100910.58
2023-03-17T21:11:40.999Z,100909.04
2023-03-17T21:14:17.800Z,100907.45
2023-03-17T21:16:53.076Z,100906.70
2023-03-17T21:19:32.308Z,100902.80
2023-03-17T21:22:09.731Z,100902.81
2023-03-17T21:24:43.637Z,100905.42
2023-03-17T21:27:18.741Z,100903.16
2023-03-17T21:29:54.511Z,100906.05
2023-03-17T21:32:33.473Z,100906.86
2023-03-17T21:35:11.716Z,100906.66
2023-03-17T21:37:45.858Z,100909.02
2023-03-17T21:40:21.647Z,100911.84
2023-03-17T21:42:56.574Z,100912.11
2023-03-17T21:45:31.613Z,100912.34
2023-03-17T21:48:05.603Z,100921.91
2023-03-17T21:50:40.112Z,100922.86
2023-03-17T21:53:17.041Z,100922.75
2023-03-17T21:55:50.992Z,100922.78
2023-03-17T21:58:24.789Z,100928.00
2023-03-17T22:01:01.029Z,100925.88
2023-03-17T22:03:35.147Z,100922.91
2023-03-17T22:06:10.143Z,100922.39
2023-03-17T22:08:44.674Z,100922.58
2023-03-17T22:11:20.559Z,100924.48
2023-03-17T22:13:54.121Z,100921.69
2023-03-17T22:16:28.170Z,100925.34
2023-03-17T22:19:02.278Z,100918.67
2023-03-17T22:21:35.583Z,100913.05
2023-03-17T22:24:09.827Z,100907.13
2023-03-17T22:26:43.581Z,100903.38
2023-03-17T22:29:17.316Z,100900.80
2023-03-17T22:31:51.312Z,100901.96
2023-03-17T22:34:24.999Z,100902.42
2023-03-17T22:36:58.791Z,100903.71
2023-03-17T22:39:32.648Z,100908.31
2023-03-17T22:42:06.764Z,100908.13
2023-03-17T22:44:40.710Z,100904.52
2023-03-17T22:47:14.708Z,100902.08
2023-03-17T22:49:48.402Z,100903.17
2023-03-17T22:52:22.165Z,100903.52
2023-03-17T22:54:56.266Z,100903.48
2023-03-17T22:57:30.070Z,100901.05
2023-03-17T23:00:04.324Z,100903.83
2023-03-17T23:02:37.993Z,100900.29
2023-03-17T23:05:13.695Z,100897.48
2023-03-17T23:07:50.836Z,100894.72
2023-03-17T23:10:25.590Z,100890.47
2023-03-17T23:12:59.757Z,100886.39
2023-03-17T23:15:34.671Z,100888.99
2023-03-17T23:18:09.702Z,100894.74
2023-03-17T23:20:43.956Z,100885.81
2023-03-17T23:23:18.549Z,100894.34
2023-03-17T23:25:52.325Z,100890.80
2023-03-17T23:28:25.852Z,100887.73
2023-03-17T23:30:59.936Z,100883.87
2023-03-17T23:33:34.382Z,100878.80
2023-03-17T23:36:09.502Z,100876.80
2023-03-17T23:38:42.939Z,100873.62
2023-03-17T23:41:17.790Z,100869.98
2023-03-17T23:43:51.645Z,100865.25
2023-03-17T23:46:25.071Z,100866.14
2023-03-17T23:48:58.812Z,100866.64
2023-03-17T23:51:32.512Z,100868.08
2023-03-17T23:54:08.049Z,100867.93
2023-03-17T23:56:41.966Z,100867.31
2023-03-17T23:59:15.884Z,100866.39
